Airport ID:6TE6
Update Time (UTC):03/04/2020 16:59
Wind Speed (Knots):15
Wind Direction (Magnetic):10
Temperature (°C):5
Dew Point (°C):-1
Humidity (%):65
Altimeter (inHg):30.22
Density Altitude (Feet):
Visibility (Miles):10+
Clouds (Hundreds of feet):OVC024
Present Weather:
METAR:METAR 6TE6 031655Z AUTO 02018G26KT 10SM OVC023 05/M01 A3022 RMK A01

The data displayed is for advisory purposes only and is not to be used for flight planning or operations.

This page is not automatically refreshed. Reload the page to see current data.